Time;durP1;ratioP1;P1;durP2;ratioP2;P2;SDS_P1;SDS_P2;PMS_P1;PMS_P2;Temp;Humidity;BMP_temperature;BMP_pressure;BME280_temperature;BME280_humidity;BME280_pressure;Samples;Min_cycle;Max_cycle;Signal;HPM_P1;HPM_P2
2023/09/21 07:14:45;;;;;;;;;;;;;;;28.16;100.00;99933.06;4932116;29;1630;-57
2023/09/21 07:17:12;;;;;;;;;;;;;;;28.24;100.00;99936.91;4934875;29;945;-57
2023/09/21 07:19:40;;;;;;;;;;;;;;;28.32;100.00;99934.31;4933627;29;1241;-57
2023/09/21 07:22:05;;;;;;;;;;;;;;;28.52;100.00;99936.03;4934815;29;836;-58
2023/09/21 07:24:33;;;;;;;;;;;;;;;28.81;100.00;99936.66;4934901;29;903;-57
2023/09/21 07:27:00;;;;;;;;;;;;;;;29.08;100.00;99944.25;4934836;29;848;-57
2023/09/21 07:29:27;;;;;;;;;;;;;;;28.98;100.00;99945.84;4934546;29;876;-58
2023/09/21 07:31:54;;;;;;;;;;;;;;;28.63;100.00;99943.75;4934738;29;1998;-58
2023/09/21 07:34:22;;;;;;;;;;;;;;;28.27;100.00;99943.63;4934724;29;912;-57
2023/09/21 07:36:49;;;;;;;;;;;;;;;28.06;100.00;99949.66;4934778;29;797;-57
2023/09/21 07:39:16;;;;;;;;;;;;;;;27.71;100.00;99941.69;4934693;29;895;-57
2023/09/21 07:41:46;;;;;;;;;;;;;;;27.50;100.00;99941.19;4934629;29;896;-57
2023/09/21 07:44:13;;;;;;;;;;;;;;;27.15;100.00;99945.31;4934658;29;891;-57
2023/09/21 07:46:40;;;;;;;;;;;;;;;26.91;100.00;99942.19;4934588;29;892;-57
2023/09/21 07:49:07;;;;;;;;;;;;;;;26.52;100.00;99951.34;4934536;29;863;-57
2023/09/21 07:51:35;;;;;;;;;;;;;;;26.17;100.00;99944.75;4934614;29;1886;-57
2023/09/21 07:54:02;;;;;;;;;;;;;;;25.93;100.00;99948.00;4937774;29;899;-57
2023/09/21 07:56:33;;;;;;;;;;;;;;;25.97;100.00;99945.69;4938537;29;861;-57
2023/09/21 07:58:59;;;;;;;;;;;;;;;26.02;100.00;99949.84;4938692;29;888;-57
2023/09/21 08:01:27;;;;;;;;;;;;;;;26.17;100.00;99949.66;4938470;29;848;-57
2023/09/21 08:03:54;;;;;;;;;;;;;;;26.16;100.00;99943.22;4938373;29;861;-58
2023/09/21 08:06:22;;;;;;;;;;;;;;;26.41;100.00;99938.66;4938228;29;830;-58
2023/09/21 08:08:52;;;;;;;;;;;;;;;26.77;99.58;99924.88;4938284;29;867;-58
2023/09/21 08:11:19;;;;;;;;;;;;;;;26.95;96.28;99928.53;4936969;29;1878;-58
2023/09/21 08:13:46;;;;;;;;;;;;;;;26.90;95.33;99924.41;4929307;29;1217;-58
2023/09/21 08:16:13;;;;;;;;;;;;;;;27.09;94.13;99928.28;4919164;29;852;-58
2023/09/21 08:18:39;;;;;;;;;;;;;;;27.54;92.81;99930.34;4919018;29;861;-58
2023/09/21 08:21:09;;;;;;;;;;;;;;;28.18;90.71;99921.97;4917942;29;1341;-58
2023/09/21 08:23:37;;;;;;;;;;;;;;;28.65;88.47;99926.94;4919009;29;928;-58
2023/09/21 08:26:04;;;;;;;;;;;;;;;28.92;85.22;99919.53;4918914;29;856;-58
2023/09/21 08:28:31;;;;;;;;;;;;;;;28.97;85.46;99915.84;4917582;29;2121;-58
2023/09/21 08:30:59;;;;;;;;;;;;;;;29.10;83.93;99915.25;4919027;29;1919;-58
2023/09/21 08:33:26;;;;;;;;;;;;;;;29.07;84.34;99905.69;4918815;29;830;-57
2023/09/21 08:35:53;;;;;;;;;;;;;;;29.20;84.23;99907.94;4918795;29;920;-58
2023/09/21 08:38:20;;;;;;;;;;;;;;;29.10;83.00;99903.88;4918852;29;873;-58
2023/09/21 08:40:52;;;;;;;;;;;;;;;28.95;83.58;99909.16;4918659;29;833;-58
2023/09/21 08:43:22;;;;;;;;;;;;;;;28.80;83.73;99906.66;4918708;29;893;-57
2023/09/21 08:45:52;;;;;;;;;;;;;;;28.99;83.12;99904.72;4918627;29;837;-57
2023/09/21 08:48:20;;;;;;;;;;;;;;;29.05;81.04;99902.59;4918557;29;896;-58
2023/09/21 08:50:49;;;;;;;;;;;;;;;28.81;81.80;99902.53;4918737;29;1891;-58
2023/09/21 08:53:25;;;;;;;;;;;;;;;28.67;83.48;99896.66;4918377;29;880;-58
2023/09/21 08:55:55;;;;;;;;;;;;;;;28.88;78.57;99899.13;4918749;29;864;-58
2023/09/21 08:58:25;;;;;;;;;;;;;;;28.64;71.26;99909.09;4918220;29;918;-58
2023/09/21 09:00:55;;;;;;;;;;;;;;;28.57;70.91;99901.13;4918396;29;857;-58
2023/09/21 09:03:26;;;;;;;;;;;;;;;28.38;70.70;99897.31;4918057;29;904;-58
2023/09/21 09:05:58;;;;;;;;;;;;;;;28.40;70.22;99897.56;4918300;29;849;-57
2023/09/21 09:08:25;;;;;;;;;;;;;;;28.73;69.32;99893.03;4918139;29;840;-58
2023/09/21 09:10:53;;;;;;;;;;;;;;;29.06;65.52;99889.13;4918082;29;1894;-57
2023/09/21 09:13:20;;;;;;;;;;;;;;;29.12;64.93;99889.91;4918089;29;1036;-57
2023/09/21 09:15:47;;;;;;;;;;;;;;;28.98;62.37;99891.81;4918046;29;1114;-57
2023/09/21 09:18:14;;;;;;;;;;;;;;;29.07;62.84;99882.16;4917933;29;873;-57
2023/09/21 09:20:44;;;;;;;;;;;;;;;29.21;60.96;99886.72;4918069;29;895;-57
2023/09/21 09:23:13;;;;;;;;;;;;;;;29.24;61.04;99882.81;4918154;29;908;-58
2023/09/21 09:25:40;;;;;;;;;;;;;;;29.29;58.07;99881.22;4917779;29;830;-57
2023/09/21 09:28:08;;;;;;;;;;;;;;;29.40;56.98;99886.03;4917965;29;877;-58
2023/09/21 09:30:35;;;;;;;;;;;;;;;29.16;55.77;99886.78;4918015;29;1970;-57
2023/09/21 09:33:03;;;;;;;;;;;;;;;29.16;55.61;99881.09;4917819;29;857;-57
2023/09/21 09:35:30;;;;;;;;;;;;;;;29.25;54.65;99880.72;4917744;29;891;-57
2023/09/21 09:37:58;;;;;;;;;;;;;;;29.32;52.95;99883.00;4917785;29;825;-58
2023/09/21 09:40:25;;;;;;;;;;;;;;;29.41;53.02;99882.66;4917571;29;868;-57
2023/09/21 09:42:51;;;;;;;;;;;;;;;29.47;52.06;99879.75;4917874;29;920;-57
2023/09/21 09:45:19;;;;;;;;;;;;;;;29.52;51.07;99881.78;4917567;29;885;-57
2023/09/21 09:48:09;;;;;;;;;;;;;;;29.45;50.33;99880.28;4917553;29;930;-57
2023/09/21 09:50:36;;;;;;;;;;;;;;;29.39;49.50;99870.25;4917453;29;1891;-57
2023/09/21 09:53:07;;;;;;;;;;;;;;;29.21;49.87;99871.72;4916127;29;914;-58
2023/09/21 09:55:35;;;;;;;;;;;;;;;29.30;49.57;99877.84;4917555;29;857;-57
2023/09/21 09:58:08;;;;;;;;;;;;;;;29.73;49.12;99867.09;4917376;29;853;-58
2023/09/21 10:00:35;;;;;;;;;;;;;;;29.65;47.42;99878.28;4917213;29;955;-57
2023/09/21 10:03:03;;;;;;;;;;;;;;;29.64;47.00;99871.81;4917185;29;928;-57
2023/09/21 10:05:30;;;;;;;;;;;;;;;29.63;47.32;99875.94;4917349;29;1315;-57
2023/09/21 10:08:01;;;;;;;;;;;;;;;29.68;47.17;99869.44;4917234;29;1236;-58
2023/09/21 10:10:33;;;;;;;;;;;;;;;29.79;46.50;99865.72;4916895;29;1895;-57
2023/09/21 10:12:59;;;;;;;;;;;;;;;29.98;46.28;99860.06;4916976;29;1258;-58
2023/09/21 10:15:26;;;;;;;;;;;;;;;30.10;45.15;99869.22;4916437;29;841;-57
2023/09/21 10:17:57;;;;;;;;;;;;;;;29.93;45.82;99858.78;4915652;29;1182;-57
2023/09/21 10:20:36;;;;;;;;;;;;;;;29.93;45.98;99855.19;4916971;29;1036;-58
2023/09/21 10:23:09;;;;;;;;;;;;;;;29.97;45.21;99861.34;4916950;29;951;-57
2023/09/21 10:25:37;;;;;;;;;;;;;;;30.02;45.18;99856.88;4916862;29;817;-58
2023/09/21 10:28:27;;;;;;;;;;;;;;;30.06;45.61;99863.03;4916873;29;872;-57
2023/09/21 10:31:17;;;;;;;;;;;;;;;30.11;44.97;99847.97;4916640;29;1922;-58
2023/09/21 10:33:56;;;;;;;;;;;;;;;29.97;44.92;99843.50;4911463;29;1192;-58
2023/09/21 10:36:23;;;;;;;;;;;;;;;30.09;44.77;99842.03;4916693;29;836;-58
2023/09/21 10:39:05;;;;;;;;;;;;;;;30.20;44.83;99830.47;4916516;29;825;-57
2023/09/21 10:41:32;;;;;;;;;;;;;;;30.32;45.22;99849.00;4916533;29;864;-57
2023/09/21 10:44:02;;;;;;;;;;;;;;;30.38;44.43;99831.81;4916342;29;845;-58
2023/09/21 10:46:34;;;;;;;;;;;;;;;30.30;44.25;99828.81;4916622;29;889;-58
2023/09/21 10:49:03;;;;;;;;;;;;;;;30.18;44.05;99824.56;4916323;29;848;-58
2023/09/21 10:51:31;;;;;;;;;;;;;;;30.42;42.07;99831.50;4916337;29;1946;-58
2023/09/21 10:54:03;;;;;;;;;;;;;;;30.46;41.49;99821.31;4915111;29;1215;-58
2023/09/21 10:56:32;;;;;;;;;;;;;;;30.62;41.50;99822.38;4915069;29;741;-58
2023/09/21 10:59:00;;;;;;;;;;;;;;;30.77;40.42;99821.09;4916352;29;832;-58
2023/09/21 11:01:27;;;;;;;;;;;;;;;30.91;40.42;99812.06;4916471;29;817;-58
2023/09/21 11:03:53;;;;;;;;;;;;;;;30.91;40.04;99808.44;4915001;29;1195;-58
2023/09/21 11:06:20;;;;;;;;;;;;;;;30.99;38.78;99803.63;4916415;29;853;-58
2023/09/21 11:08:48;;;;;;;;;;;;;;;31.20;38.74;99803.00;4916066;29;836;-57
2023/09/21 11:11:16;;;;;;;;;;;;;;;31.49;37.92;99804.03;4916031;29;1922;-58
2023/09/21 11:13:43;;;;;;;;;;;;;;;31.56;36.59;99788.31;4916005;29;1384;-58
2023/09/21 11:16:13;;;;;;;;;;;;;;;31.69;36.78;99786.22;4915985;29;880;-58
2023/09/21 11:18:42;;;;;;;;;;;;;;;31.61;37.42;99785.34;4916310;29;904;-58
2023/09/21 11:21:11;;;;;;;;;;;;;;;31.56;36.90;99782.59;4915922;29;888;-57
2023/09/21 11:23:44;;;;;;;;;;;;;;;31.66;37.13;99786.53;4915925;29;853;-57
2023/09/21 11:26:14;;;;;;;;;;;;;;;31.82;36.06;99784.69;4915764;29;837;-58
2023/09/21 11:28:42;;;;;;;;;;;;;;;32.02;36.07;99783.22;4915848;29;829;-57
2023/09/21 11:31:11;;;;;;;;;;;;;;;32.22;35.72;99782.50;4915691;29;1914;-57
2023/09/21 11:33:40;;;;;;;;;;;;;;;32.29;36.72;99786.75;4915808;29;841;-58
2023/09/21 11:36:08;;;;;;;;;;;;;;;32.62;35.48;99785.19;4915710;29;861;-58
2023/09/21 11:38:36;;;;;;;;;;;;;;;32.55;35.26;99777.31;4915560;29;928;-58
2023/09/21 11:41:03;;;;;;;;;;;;;;;32.52;35.55;99773.47;4915863;29;1312;-58
2023/09/21 11:43:30;;;;;;;;;;;;;;;32.81;34.83;99775.66;4915602;29;1350;-58
2023/09/21 11:45:57;;;;;;;;;;;;;;;32.91;35.92;99770.97;4915966;29;1221;-58
2023/09/21 11:48:26;;;;;;;;;;;;;;;32.63;37.08;99761.00;4915576;29;1403;-58
2023/09/21 11:50:53;;;;;;;;;;;;;;;32.89;37.05;99759.31;4915722;29;1890;-58
2023/09/21 11:53:20;;;;;;;;;;;;;;;32.87;37.46;99750.50;4915672;29;877;-58
2023/09/21 11:55:47;;;;;;;;;;;;;;;32.70;38.06;99756.66;4915822;29;880;-58
2023/09/21 11:58:14;;;;;;;;;;;;;;;32.06;38.42;99746.50;4915999;29;895;-57
2023/09/21 12:00:45;;;;;;;;;;;;;;;31.65;39.69;99745.03;4915926;29;868;-58
2023/09/21 12:03:16;;;;;;;;;;;;;;;31.56;40.78;99745.47;4915503;29;845;-57
2023/09/21 12:05:43;;;;;;;;;;;;;;;31.27;41.96;99745.25;4915520;29;861;-57
2023/09/21 12:08:11;;;;;;;;;;;;;;;31.03;42.20;99740.53;4915520;29;826;-57
2023/09/21 12:10:37;;;;;;;;;;;;;;;30.78;44.06;99739.91;4915336;29;1886;-57
2023/09/21 12:13:04;;;;;;;;;;;;;;;30.15;45.34;99748.69;4914099;29;1245;-56
2023/09/21 12:15:33;;;;;;;;;;;;;;;29.76;46.18;99741.44;4915393;29;904;-57
2023/09/21 12:18:01;;;;;;;;;;;;;;;29.30;47.62;99735.53;4915414;29;920;-56
2023/09/21 12:20:27;;;;;;;;;;;;;;;28.80;48.92;99739.63;4915273;29;884;-57
2023/09/21 12:22:54;;;;;;;;;;;;;;;28.53;49.97;99735.75;4914109;29;1202;-57
2023/09/21 12:25:21;;;;;;;;;;;;;;;28.58;49.59;99726.41;4915173;29;839;-56
2023/09/21 12:27:48;;;;;;;;;;;;;;;28.97;49.87;99733.78;4915376;29;837;-57
2023/09/21 12:30:17;;;;;;;;;;;;;;;28.74;50.02;99727.53;4915235;29;829;-57
2023/09/21 12:32:43;;;;;;;;;;;;;;;28.59;50.76;99733.66;4915123;29;1964;-56
2023/09/21 12:35:17;;;;;;;;;;;;;;;28.44;51.02;99736.06;4915208;29;857;-57
2023/09/21 12:37:46;;;;;;;;;;;;;;;28.17;51.91;99726.47;4915117;29;869;-57
2023/09/21 12:40:14;;;;;;;;;;;;;;;27.96;52.00;99729.69;4918724;29;836;-57
2023/09/21 12:42:42;;;;;;;;;;;;;;;27.90;52.76;99729.72;4918731;29;896;-57
2023/09/21 12:45:14;;;;;;;;;;;;;;;27.90;52.90;99731.78;4918740;29;837;-57
2023/09/21 12:47:46;;;;;;;;;;;;;;;28.29;52.61;99725.84;4918575;29;896;-57
2023/09/21 12:50:14;;;;;;;;;;;;;;;29.21;51.36;99733.06;4918614;29;920;-57
2023/09/21 12:52:44;;;;;;;;;;;;;;;29.83;49.22;99729.47;4918415;29;1936;-56
2023/09/21 12:55:11;;;;;;;;;;;;;;;29.94;48.36;99728.53;4917207;29;1211;-57
2023/09/21 12:57:38;;;;;;;;;;;;;;;29.88;48.27;99720.06;4918809;29;865;-57
2023/09/21 13:00:17;;;;;;;;;;;;;;;29.82;48.51;99724.28;4918400;29;841;-57
2023/09/21 13:02:44;;;;;;;;;;;;;;;30.06;48.11;99723.41;4918327;29;836;-57
2023/09/21 13:05:12;;;;;;;;;;;;;;;30.33;47.28;99707.22;4918370;29;892;-57
2023/09/21 13:07:41;;;;;;;;;;;;;;;30.57;46.92;99696.97;4918146;29;884;-57
2023/09/21 13:10:08;;;;;;;;;;;;;;;30.64;46.93;99699.97;4918160;29;900;-57
2023/09/21 13:12:35;;;;;;;;;;;;;;;30.70;46.51;99705.56;4918040;29;1987;-57
2023/09/21 13:15:02;;;;;;;;;;;;;;;30.87;46.63;99711.75;4917984;29;1311;-57
2023/09/21 13:17:31;;;;;;;;;;;;;;;30.49;46.51;99702.53;4918114;29;853;-57
2023/09/21 13:20:03;;;;;;;;;;;;;;;29.91;47.80;99709.66;4918053;29;880;-57
2023/09/21 13:22:31;;;;;;;;;;;;;;;30.15;48.33;99700.25;4918078;29;920;-57
2023/09/21 13:24:58;;;;;;;;;;;;;;;30.70;46.89;99703.50;4917782;29;944;-57
2023/09/21 13:27:25;;;;;;;;;;;;;;;31.10;46.76;99699.91;4916765;29;837;-58
2023/09/21 13:29:52;;;;;;;;;;;;;;;31.31;45.52;99702.88;4917932;29;857;-58
2023/09/21 13:32:21;;;;;;;;;;;;;;;31.47;44.86;99707.50;4917651;29;1986;-57
2023/09/21 13:34:49;;;;;;;;;;;;;;;31.70;44.65;99702.03;4918147;29;1308;-58
2023/09/21 13:37:16;;;;;;;;;;;;;;;31.79;44.12;99709.38;4918060;29;833;-57
2023/09/21 13:39:43;;;;;;;;;;;;;;;31.62;44.79;99706.13;4917864;29;932;-58
2023/09/21 13:42:11;;;;;;;;;;;;;;;31.45;44.93;99707.28;4917857;29;851;-58
2023/09/21 13:44:38;;;;;;;;;;;;;;;31.36;45.24;99699.13;4917605;29;813;-57
2023/09/21 13:47:05;;;;;;;;;;;;;;;30.93;45.35;99703.84;4917724;29;810;-58
2023/09/21 13:49:35;;;;;;;;;;;;;;;30.43;46.08;99705.50;4917414;29;893;-57
2023/09/21 13:52:02;;;;;;;;;;;;;;;30.27;46.93;99700.81;4916794;29;1886;-57
2023/09/21 13:54:32;;;;;;;;;;;;;;;30.14;47.72;99695.84;4917470;29;951;-57
2023/09/21 13:56:59;;;;;;;;;;;;;;;30.01;47.44;99695.78;4917373;29;869;-57
2023/09/21 13:59:26;;;;;;;;;;;;;;;29.69;48.15;99694.44;4917293;29;881;-57
2023/09/21 14:01:53;;;;;;;;;;;;;;;29.43;49.00;99694.25;4917310;29;889;-58
2023/09/21 14:04:21;;;;;;;;;;;;;;;29.28;50.05;99692.59;4917268;29;861;-57
2023/09/21 14:06:48;;;;;;;;;;;;;;;29.03;51.69;99696.75;4917026;29;905;-57
2023/09/21 14:09:15;;;;;;;;;;;;;;;28.86;52.89;99691.25;4917093;29;846;-57
2023/09/21 14:11:42;;;;;;;;;;;;;;;28.69;52.46;99695.03;4916967;29;1946;-57
2023/09/21 14:14:10;;;;;;;;;;;;;;;28.55;53.93;99696.22;4927937;29;1284;-57
2023/09/21 14:16:36;;;;;;;;;;;;;;;28.43;54.51;99694.72;4936062;29;881;-57
2023/09/21 14:19:02;;;;;;;;;;;;;;;28.34;54.69;99695.06;4935879;29;844;-57
2023/09/21 14:21:31;;;;;;;;;;;;;;;28.29;54.44;99697.44;4935897;29;865;-57
2023/09/21 14:23:56;;;;;;;;;;;;;;;28.15;56.06;99689.28;4935873;29;853;-57
2023/09/21 14:26:23;;;;;;;;;;;;;;;28.09;56.63;99684.41;4935990;29;892;-57
2023/09/21 14:28:51;;;;;;;;;;;;;;;28.20;56.57;99692.06;4935690;29;1147;-57
2023/09/21 14:31:19;;;;;;;;;;;;;;;28.32;56.47;99692.00;4935532;29;1984;-57
2023/09/21 14:33:46;;;;;;;;;;;;;;;28.30;57.17;99693.28;4935694;29;951;-57
2023/09/21 14:36:13;;;;;;;;;;;;;;;28.24;57.43;99700.31;4935589;29;852;-57
2023/09/21 14:38:39;;;;;;;;;;;;;;;28.08;59.00;99690.63;4935511;29;946;-57
2023/09/21 14:41:07;;;;;;;;;;;;;;;28.04;59.72;99696.59;4935457;29;861;-57
2023/09/21 14:43:34;;;;;;;;;;;;;;;27.85;59.75;99692.81;4935640;29;828;-57
2023/09/21 14:46:00;;;;;;;;;;;;;;;27.72;60.04;99687.72;4935446;29;903;-57
2023/09/21 14:48:27;;;;;;;;;;;;;;;27.42;61.39;99684.78;4935501;29;1012;-57
2023/09/21 14:50:54;;;;;;;;;;;;;;;27.24;61.44;99697.47;4935280;29;1914;-57
2023/09/21 14:53:25;;;;;;;;;;;;;;;27.12;62.11;99691.06;4935453;29;850;-57
2023/09/21 14:55:55;;;;;;;;;;;;;;;27.00;63.57;99693.16;4935273;29;880;-57
2023/09/21 14:58:22;;;;;;;;;;;;;;;27.16;63.65;99690.78;4934100;29;873;-58
2023/09/21 15:00:49;;;;;;;;;;;;;;;27.26;63.09;99686.38;4934918;29;872;-57
2023/09/21 15:03:16;;;;;;;;;;;;;;;27.22;63.09;99692.31;4935191;29;912;-57
2023/09/21 15:05:45;;;;;;;;;;;;;;;27.22;62.56;99694.41;4933881;29;1194;-58
2023/09/21 15:08:12;;;;;;;;;;;;;;;27.05;63.11;99691.59;4934998;29;861;-57
2023/09/21 15:10:39;;;;;;;;;;;;;;;26.77;64.25;99688.81;4935258;29;1966;-58
2023/09/21 15:13:06;;;;;;;;;;;;;;;26.46;66.20;99693.47;4935044;29;1244;-58
2023/09/21 15:15:33;;;;;;;;;;;;;;;26.23;68.34;99687.81;4935090;29;833;-58
2023/09/21 15:18:00;;;;;;;;;;;;;;;26.00;71.01;99694.72;4934981;29;826;-58
2023/09/21 15:20:27;;;;;;;;;;;;;;;25.70;73.52;99703.66;4935032;29;845;-58
2023/09/21 15:22:54;;;;;;;;;;;;;;;25.32;76.26;99696.56;4934826;29;831;-58
2023/09/21 15:25:22;;;;;;;;;;;;;;;25.00;79.22;99703.06;4934952;29;866;-58
2023/09/21 15:27:49;;;;;;;;;;;;;;;24.67;83.60;99697.22;4934721;29;817;-58
2023/09/21 15:30:16;;;;;;;;;;;;;;;24.31;87.69;99699.47;4934855;29;806;-58
2023/09/21 15:32:44;;;;;;;;;;;;;;;24.04;90.94;99707.16;4934765;29;1966;-58
2023/09/21 15:35:11;;;;;;;;;;;;;;;23.84;93.06;99708.78;4934673;29;912;-58
2023/09/21 15:37:38;;;;;;;;;;;;;;;23.71;94.88;99713.22;4934965;29;853;-60
2023/09/21 15:40:05;;;;;;;;;;;;;;;23.52;96.67;99712.75;4935022;29;802;-60
2023/09/21 15:42:32;;;;;;;;;;;;;;;23.35;98.58;99721.75;4934674;29;829;-60
2023/09/21 15:44:58;;;;;;;;;;;;;;;23.21;99.47;99728.22;4934642;29;857;-59
2023/09/21 15:47:25;;;;;;;;;;;;;;;23.05;100.00;99721.09;4934591;29;881;-59
2023/09/21 15:49:52;;;;;;;;;;;;;;;22.92;100.00;99731.91;4934430;29;857;-59
2023/09/21 15:52:19;;;;;;;;;;;;;;;22.81;100.00;99738.16;4934585;29;1878;-59
2023/09/21 15:54:46;;;;;;;;;;;;;;;22.70;100.00;99743.59;4934465;29;849;-59
2023/09/21 15:57:13;;;;;;;;;;;;;;;22.59;100.00;99744.97;4934544;29;794;-59
2023/09/21 15:59:40;;;;;;;;;;;;;;;22.45;100.00;99751.41;4934462;29;873;-59
2023/09/21 16:02:09;;;;;;;;;;;;;;;22.32;100.00;99751.69;4934466;29;845;-59
2023/09/21 16:04:35;;;;;;;;;;;;;;;22.25;100.00;99756.91;4934387;29;1158;-59
2023/09/21 16:07:03;;;;;;;;;;;;;;;22.14;100.00;99751.84;4934452;29;841;-59
2023/09/21 16:09:31;;;;;;;;;;;;;;;22.01;100.00;99757.75;4934521;29;1289;-59
2023/09/21 16:11:59;;;;;;;;;;;;;;;21.85;100.00;99755.38;4934466;29;1882;-60
2023/09/21 16:14:25;;;;;;;;;;;;;;;21.74;100.00;99758.75;4936650;29;1295;-59
2023/09/21 16:16:52;;;;;;;;;;;;;;;21.57;100.00;99752.78;4938295;29;829;-59
2023/09/21 16:19:19;;;;;;;;;;;;;;;21.38;100.00;99761.31;4938672;29;829;-59
2023/09/21 16:21:46;;;;;;;;;;;;;;;21.25;100.00;99763.59;4938501;29;1209;-59
2023/09/21 16:24:13;;;;;;;;;;;;;;;21.11;100.00;99767.09;4938113;29;1241;-59
2023/09/21 16:26:41;;;;;;;;;;;;;;;20.97;100.00;99760.13;4938261;29;1209;-59
2023/09/21 16:29:07;;;;;;;;;;;;;;;20.86;100.00;99762.69;4938095;29;814;-59
2023/09/21 16:31:36;;;;;;;;;;;;;;;20.79;100.00;99775.03;4937924;29;1906;-59
2023/09/21 16:34:03;;;;;;;;;;;;;;;20.77;100.00;99781.13;4937885;29;907;-59
2023/09/21 16:36:30;;;;;;;;;;;;;;;20.56;100.00;99760.41;4937851;29;911;-60
2023/09/21 16:38:56;;;;;;;;;;;;;;;20.68;100.00;99789.59;4937916;29;904;-60
2023/09/21 16:41:23;;;;;;;;;;;;;;;20.63;100.00;99784.59;4937915;29;960;-59
2023/09/21 16:43:50;;;;;;;;;;;;;;;20.61;100.00;99787.09;4937895;29;813;-59
2023/09/21 16:46:17;;;;;;;;;;;;;;;20.55;100.00;99784.13;4937882;29;856;-59
2023/09/21 16:48:44;;;;;;;;;;;;;;;20.48;100.00;99787.25;4937699;29;864;-59
2023/09/21 16:51:11;;;;;;;;;;;;;;;20.40;100.00;99795.25;4937621;29;1948;-59
2023/09/21 16:53:41;;;;;;;;;;;;;;;;;;4937636;29;818;-60
2023/09/21 16:56:06;;;;;;;;;;;;;;;20.29;100.00;99794.16;4937432;29;870;-59
2023/09/21 16:58:33;;;;;;;;;;;;;;;20.24;100.00;99801.19;4937709;29;821;-60
2023/09/21 17:00:59;;;;;;;;;;;;;;;20.17;100.00;99810.69;4937549;29;837;-60
2023/09/21 17:03:26;;;;;;;;;;;;;;;20.10;100.00;99811.03;4937307;29;900;-59
2023/09/21 17:05:52;;;;;;;;;;;;;;;20.02;100.00;99821.00;4937499;29;911;-59
2023/09/21 17:08:20;;;;;;;;;;;;;;;19.97;100.00;99821.59;4937230;29;900;-59
2023/09/21 17:10:47;;;;;;;;;;;;;;;19.93;100.00;99818.19;4937423;29;1945;-59
2023/09/21 17:13:14;;;;;;;;;;;;;;;19.89;100.00;99815.53;4937237;29;1200;-59
2023/09/21 17:15:41;;;;;;;;;;;;;;;19.85;100.00;99811.34;4937115;29;842;-59
2023/09/21 17:18:08;;;;;;;;;;;;;;;19.82;100.00;99813.03;4936985;29;880;-60
2023/09/21 17:20:34;;;;;;;;;;;;;;;19.81;100.00;99805.09;4937288;29;885;-60
2023/09/21 17:23:01;;;;;;;;;;;;;;;19.82;100.00;99809.44;4937228;29;857;-59
2023/09/21 17:25:27;;;;;;;;;;;;;;;19.86;100.00;99796.03;4936954;29;1173;-59
2023/09/21 17:27:54;;;;;;;;;;;;;;;19.94;100.00;99805.72;4937030;29;1281;-59
2023/09/21 17:30:21;;;;;;;;;;;;;;;19.99;100.00;99810.69;4936906;29;881;-60
2023/09/21 17:32:48;;;;;;;;;;;;;;;20.03;100.00;99811.31;4936732;29;1910;-59
2023/09/21 17:35:14;;;;;;;;;;;;;;;20.07;100.00;99813.97;4937188;29;786;-59
2023/09/21 17:37:41;;;;;;;;;;;;;;;20.10;100.00;99818.63;4936744;29;822;-60
2023/09/21 17:40:12;;;;;;;;;;;;;;;20.08;100.00;99821.94;4936626;29;849;-59
2023/09/21 17:42:40;;;;;;;;;;;;;;;20.10;100.00;99818.63;4936675;29;884;-61
2023/09/21 17:45:08;;;;;;;;;;;;;;;20.09;100.00;99819.91;4936520;29;849;-59
2023/09/21 17:47:34;;;;;;;;;;;;;;;20.08;100.00;99821.13;4936594;29;853;-60
2023/09/21 17:50:03;;;;;;;;;;;;;;;20.06;100.00;99818.81;4936545;29;869;-59
2023/09/21 17:52:30;;;;;;;;;;;;;;;20.02;100.00;99814.63;4936395;29;1891;-59
2023/09/21 17:54:57;;;;;;;;;;;;;;;19.95;100.00;99819.28;4936383;29;806;-59
2023/09/21 17:57:24;;;;;;;;;;;;;;;19.85;100.00;99820.53;4936488;29;818;-60
2023/09/21 17:59:50;;;;;;;;;;;;;;;19.78;100.00;99829.25;4936383;29;825;-59
2023/09/21 18:02:18;;;;;;;;;;;;;;;19.75;100.00;99833.72;4936120;29;931;-60
2023/09/21 18:04:45;;;;;;;;;;;;;;;19.76;100.00;99832.50;4936237;29;845;-60
2023/09/21 18:07:12;;;;;;;;;;;;;;;19.78;100.00;99832.06;4935960;29;889;-60
2023/09/21 18:09:39;;;;;;;;;;;;;;;19.83;100.00;99825.03;4935960;29;852;-60
2023/09/21 18:12:06;;;;;;;;;;;;;;;19.91;100.00;99820.69;4935984;29;1895;-60
2023/09/21 18:14:33;;;;;;;;;;;;;;;19.96;100.00;99826.44;4935905;29;1497;-59
2023/09/21 18:17:02;;;;;;;;;;;;;;;20.02;100.00;99823.81;4936055;29;841;-59
2023/09/21 18:19:32;;;;;;;;;;;;;;;20.06;100.00;99829.25;4934803;29;1270;-60
2023/09/21 18:21:59;;;;;;;;;;;;;;;20.07;100.00;99823.16;4936056;29;849;-60
2023/09/21 18:24:26;;;;;;;;;;;;;;;20.09;100.00;99828.31;4935917;29;853;-60
2023/09/21 18:26:52;;;;;;;;;;;;;;;20.08;100.00;99827.53;4935890;29;853;-59
2023/09/21 18:29:19;;;;;;;;;;;;;;;20.10;100.00;99829.88;4935763;29;863;-59
2023/09/21 18:31:46;;;;;;;;;;;;;;;20.10;100.00;99824.25;4935700;29;1919;-59
2023/09/21 18:34:14;;;;;;;;;;;;;;;20.08;100.00;99821.94;4935666;29;850;-59
2023/09/21 18:36:41;;;;;;;;;;;;;;;20.01;100.00;99827.84;4935173;29;864;-59
2023/09/21 18:39:08;;;;;;;;;;;;;;;19.96;100.00;99822.84;4935886;29;912;-60
2023/09/21 18:41:35;;;;;;;;;;;;;;;19.90;100.00;99828.31;4935801;29;880;-59
2023/09/21 18:44:03;;;;;;;;;;;;;;;19.83;100.00;99819.44;4935514;29;975;-60
2023/09/21 18:46:31;;;;;;;;;;;;;;;19.78;100.00;99820.84;4935480;29;883;-59
2023/09/21 18:48:58;;;;;;;;;;;;;;;19.73;100.00;99813.03;4935388;29;861;-59
2023/09/21 18:51:26;;;;;;;;;;;;;;;19.68;100.00;99816.41;4935340;29;1886;-59
2023/09/21 18:53:53;;;;;;;;;;;;;;;19.63;100.00;99808.59;4935314;29;880;-59
2023/09/21 18:56:27;;;;;;;;;;;;;;;19.59;100.00;99825.59;4933931;29;1300;-60
2023/09/21 18:58:55;;;;;;;;;;;;;;;19.57;100.00;99819.69;4935701;29;1334;-60
2023/09/21 19:01:23;;;;;;;;;;;;;;;19.53;100.00;99814.22;4935186;29;971;-59
2023/09/21 19:03:51;;;;;;;;;;;;;;;19.48;100.00;99814.84;4935439;29;845;-59
2023/09/21 19:06:21;;;;;;;;;;;;;;;19.46;100.00;99810.91;4935108;29;853;-59
2023/09/21 19:08:49;;;;;;;;;;;;;;;19.42;100.00;99811.06;4935262;29;974;-60
2023/09/21 19:11:16;;;;;;;;;;;;;;;19.43;100.00;99817.44;4935043;29;1957;-59
2023/09/21 19:13:46;;;;;;;;;;;;;;;19.44;100.00;99808.59;4935082;29;1215;-59
2023/09/21 19:16:12;;;;;;;;;;;;;;;19.44;100.00;99805.78;4934898;29;841;-60
2023/09/21 19:18:39;;;;;;;;;;;;;;;19.40;100.00;99807.97;4935004;29;865;-60
2023/09/21 19:21:07;;;;;;;;;;;;;;;19.37;100.00;99804.06;4935128;29;789;-59
2023/09/21 19:23:34;;;;;;;;;;;;;;;19.34;100.00;99807.78;4934858;29;817;-60
2023/09/21 19:26:02;;;;;;;;;;;;;;;19.32;100.00;99815.88;4934875;29;895;-59
2023/09/21 19:28:29;;;;;;;;;;;;;;;19.29;100.00;99808.41;4934820;29;912;-59
2023/09/21 19:30:56;;;;;;;;;;;;;;;19.25;100.00;99807.75;4934749;29;1918;-59
2023/09/21 19:33:22;;;;;;;;;;;;;;;19.17;100.00;99806.47;4934806;29;900;-60
2023/09/21 19:35:53;;;;;;;;;;;;;;;19.10;100.00;99801.94;4935080;29;829;-60
2023/09/21 19:38:21;;;;;;;;;;;;;;;19.04;100.00;99800.22;4934708;29;875;-60
2023/09/21 19:40:48;;;;;;;;;;;;;;;18.95;100.00;99800.97;4934666;29;928;-59
2023/09/21 19:43:14;;;;;;;;;;;;;;;18.85;100.00;99802.94;4934490;29;862;-59
2023/09/21 19:45:41;;;;;;;;;;;;;;;18.75;100.00;99810.50;4934614;29;887;-60
2023/09/21 19:48:08;;;;;;;;;;;;;;;18.66;100.00;99816.00;4933731;29;818;-60
2023/09/21 19:50:35;;;;;;;;;;;;;;;18.63;100.00;99822.53;4934379;29;837;-60
2023/09/21 19:53:02;;;;;;;;;;;;;;;18.66;100.00;99827.22;4934495;29;1882;-59
2023/09/21 19:55:29;;;;;;;;;;;;;;;18.67;100.00;99825.19;4934522;29;825;-60
2023/09/21 19:57:56;;;;;;;;;;;;;;;18.65;100.00;99831.25;4934532;29;825;-60
2023/09/21 20:00:22;;;;;;;;;;;;;;;18.61;100.00;99824.25;4933119;29;1372;-60
2023/09/21 20:02:49;;;;;;;;;;;;;;;18.55;100.00;99826.84;4934440;29;889;-59
2023/09/21 20:05:15;;;;;;;;;;;;;;;18.49;100.00;99832.25;4934453;29;829;-60
2023/09/21 20:07:41;;;;;;;;;;;;;;;18.45;100.00;99834.38;4934454;29;798;-60
2023/09/21 20:10:07;;;;;;;;;;;;;;;18.44;100.00;99832.84;4934333;29;814;-60
2023/09/21 20:12:33;;;;;;;;;;;;;;;18.42;100.00;99826.91;4934422;29;1887;-60
2023/09/21 20:15:00;;;;;;;;;;;;;;;18.36;100.00;99831.53;4934205;29;1272;-60
2023/09/21 20:17:27;;;;;;;;;;;;;;;18.29;100.00;99826.22;4934354;29;817;-59